createdAt,value
2019-01-21T00:00:37.556Z,-4.20
2019-01-21T00:03:06.344Z,-4.40
2019-01-21T00:05:34.778Z,-4.50
2019-01-21T00:08:03.378Z,-4.40
2019-01-21T00:10:31.826Z,-4.30
2019-01-21T00:13:00.253Z,-4.30
2019-01-21T00:15:28.686Z,-4.20
2019-01-21T00:17:59.129Z,-4.20
2019-01-21T00:20:27.650Z,-4.10
2019-01-21T00:22:56.085Z,-4.10
2019-01-21T00:25:24.528Z,-4.10
2019-01-21T00:27:52.971Z,-4.10
2019-01-21T00:30:21.414Z,-4.00
2019-01-21T00:32:49.850Z,-4.00
2019-01-21T00:35:18.285Z,-3.80
2019-01-21T00:37:46.729Z,-3.90
2019-01-21T00:40:17.422Z,-3.80
2019-01-21T00:42:45.888Z,-3.80
2019-01-21T00:45:15.353Z,-3.80
2019-01-21T00:47:43.787Z,-3.80
2019-01-21T00:50:13.557Z,-3.90
2019-01-21T00:52:42.011Z,-3.80
2019-01-21T00:55:12.581Z,-3.70
2019-01-21T00:57:41.189Z,-3.60
2019-01-21T01:00:23.858Z,-3.60
2019-01-21T01:02:52.302Z,-3.60
2019-01-21T01:05:22.657Z,-3.60
2019-01-21T01:07:51.098Z,-3.60
2019-01-21T01:10:19.540Z,-3.60
2019-01-21T01:12:48.006Z,-3.60
2019-01-21T01:15:16.502Z,-3.50
2019-01-21T01:17:45.021Z,-3.40
2019-01-21T01:20:16.527Z,-3.40
2019-01-21T01:22:44.969Z,-3.40
2019-01-21T01:25:13.722Z,-3.20
2019-01-21T01:27:42.231Z,-3.50
2019-01-21T01:30:13.106Z,-3.50
2019-01-21T01:32:41.567Z,-3.50
2019-01-21T01:35:11.329Z,-3.50
2019-01-21T01:37:39.862Z,-3.40
2019-01-21T01:40:11.367Z,-3.40
2019-01-21T01:42:39.809Z,-3.30
2019-01-21T01:45:11.474Z,-3.30
2019-01-21T01:47:44.676Z,-3.30
2019-01-21T01:50:10.243Z,-3.30
2019-01-21T01:52:38.689Z,-3.30
2019-01-21T01:55:11.314Z,-3.30
2019-01-21T01:57:39.760Z,-3.30
2019-01-21T02:00:15.629Z,-3.40
2019-01-21T02:02:44.086Z,-3.50
2019-01-21T02:05:12.572Z,-3.40
2019-01-21T02:07:41.054Z,-3.40
2019-01-21T02:10:11.762Z,-3.40
2019-01-21T02:12:40.192Z,-3.40
2019-01-21T02:15:11.598Z,-3.50
2019-01-21T02:17:40.039Z,-3.40
2019-01-21T02:20:16.446Z,-3.40
2019-01-21T02:22:47.120Z,-3.40
2019-01-21T02:25:15.838Z,-3.50
2019-01-21T02:28:13.265Z,-3.40
2019-01-21T02:34:40.151Z,-3.80
2019-01-21T02:37:47.309Z,-3.60
2019-01-21T02:40:55.819Z,-3.60
2019-01-21T02:44:04.335Z,-3.80
2019-01-21T02:47:11.429Z,-3.90
2019-01-21T02:50:18.539Z,-3.90
2019-01-21T02:53:25.628Z,-3.90
2019-01-21T02:56:34.132Z,-4.00
2019-01-21T02:59:41.248Z,-4.00
2019-01-21T03:02:48.354Z,-4.10
2019-01-21T03:05:55.465Z,-4.30
2019-01-21T03:09:02.565Z,-4.70
2019-01-21T03:12:09.670Z,-4.70
2019-01-21T03:15:16.788Z,-4.70
2019-01-21T03:18:23.872Z,-4.60
2019-01-21T03:21:31.048Z,-4.70
2019-01-21T03:24:12.097Z,-4.70
2019-01-21T03:26:56.039Z,-5.00
2019-01-21T03:29:36.827Z,-5.20
2019-01-21T03:32:17.540Z,-5.00
2019-01-21T03:34:58.406Z,-5.10
2019-01-21T03:37:39.521Z,-5.20
2019-01-21T03:40:20.516Z,-5.60
2019-01-21T03:43:27.628Z,-5.70
2019-01-21T03:46:36.145Z,-5.80
2019-01-21T03:49:44.954Z,-5.80
2019-01-21T03:52:52.089Z,-5.60
2019-01-21T03:55:39.953Z,-5.50
2019-01-21T03:58:47.231Z,-5.60
2019-01-21T04:01:54.439Z,-6.10
2019-01-21T04:05:02.936Z,-6.20
2019-01-21T04:08:11.508Z,-6.00
2019-01-21T04:11:18.633Z,-5.90
2019-01-21T04:14:27.153Z,-6.00
2019-01-21T04:17:34.280Z,-6.00
2019-01-21T04:20:41.387Z,-6.10
2019-01-21T04:23:48.519Z,-6.30
2019-01-21T04:26:29.272Z,-6.10
2019-01-21T04:29:10.258Z,-6.20
2019-01-21T04:31:51.219Z,-6.20
2019-01-21T04:34:32.256Z,-6.30
2019-01-21T04:37:13.208Z,-6.30
2019-01-21T04:39:53.376Z,-6.20
2019-01-21T04:42:34.620Z,-6.20
2019-01-21T04:45:15.402Z,-6.30
2019-01-21T04:47:56.086Z,-6.60
2019-01-21T04:50:36.873Z,-6.60
2019-01-21T04:53:17.861Z,-6.50
2019-01-21T04:55:58.320Z,-6.40
2019-01-21T04:58:39.008Z,-6.50
2019-01-21T05:01:19.848Z,-6.50
2019-01-21T05:04:00.611Z,-6.70
2019-01-21T05:09:54.092Z,-6.90
2019-01-21T05:12:34.869Z,-7.00
2019-01-21T05:15:15.754Z,-6.90
2019-01-21T05:17:56.584Z,-6.80
2019-01-21T05:20:36.877Z,-6.90
2019-01-21T05:23:17.756Z,-6.80
2019-01-21T05:25:58.736Z,-6.80
2019-01-21T05:28:39.430Z,-6.90
2019-01-21T05:31:20.086Z,-6.90
2019-01-21T05:34:01.266Z,-7.10
2019-01-21T05:36:41.972Z,-7.30
2019-01-21T05:39:22.747Z,-7.20
2019-01-21T05:42:03.309Z,-7.10
2019-01-21T05:44:44.033Z,-7.10
2019-01-21T05:47:24.796Z,-7.10
2019-01-21T05:50:05.820Z,-7.20
2019-01-21T05:52:46.673Z,-7.20
2019-01-21T05:55:27.584Z,-7.50
2019-01-21T05:58:07.937Z,-7.50
2019-01-21T06:00:48.393Z,-7.30
2019-01-21T06:03:29.370Z,-7.50
2019-01-21T06:06:10.016Z,-7.70
2019-01-21T06:08:50.521Z,-7.60
2019-01-21T06:11:31.357Z,-7.50
2019-01-21T06:14:12.400Z,-7.30
2019-01-21T06:16:53.291Z,-7.20
2019-01-21T06:19:34.085Z,-7.30
2019-01-21T06:22:14.827Z,-7.40
2019-01-21T06:24:55.379Z,-7.30
2019-01-21T06:27:35.731Z,-7.20
2019-01-21T06:30:16.548Z,-7.30
2019-01-21T06:32:57.632Z,-7.40
2019-01-21T06:35:38.696Z,-7.20
2019-01-21T06:38:19.376Z,-7.30
2019-01-21T06:41:00.233Z,-7.30
2019-01-21T06:43:40.568Z,-7.40
2019-01-21T06:46:21.541Z,-7.40
2019-01-21T06:49:04.876Z,-7.40
2019-01-21T06:51:44.411Z,-7.30
2019-01-21T06:54:24.970Z,-7.30
2019-01-21T06:57:05.753Z,-7.40
2019-01-21T06:59:46.846Z,-7.40
2019-01-21T07:05:08.328Z,-7.30
2019-01-21T07:07:48.669Z,-7.20
2019-01-21T07:10:29.564Z,-7.20
2019-01-21T07:13:10.552Z,-6.90
2019-01-21T07:15:51.493Z,-6.70
2019-01-21T07:18:32.281Z,-6.80
2019-01-21T07:21:13.488Z,-6.80
2019-01-21T07:24:20.621Z,-6.70
2019-01-21T07:27:29.156Z,-6.70
2019-01-21T07:30:37.664Z,-6.60
2019-01-21T07:33:44.780Z,-6.50
2019-01-21T07:36:51.876Z,-6.40
2019-01-21T07:39:58.976Z,-6.50
2019-01-21T07:43:07.494Z,-6.50
2019-01-21T07:46:16.016Z,-6.30
2019-01-21T07:49:23.162Z,-6.10
2019-01-21T07:52:30.275Z,-6.20
2019-01-21T07:55:38.813Z,-6.20
2019-01-21T07:58:45.937Z,-6.20
2019-01-21T08:01:54.444Z,-6.20
2019-01-21T08:05:02.977Z,-6.10
2019-01-21T08:08:10.082Z,-6.20
2019-01-21T08:11:17.311Z,-5.90
2019-01-21T08:14:25.825Z,-5.80
2019-01-21T08:17:32.923Z,-5.80
2019-01-21T08:20:41.452Z,-5.80
2019-01-21T08:23:48.577Z,-6.10
2019-01-21T08:26:28.829Z,-6.10
2019-01-21T08:29:09.551Z,-6.10
2019-01-21T08:31:50.363Z,-5.70
2019-01-21T08:34:31.076Z,-5.60
2019-01-21T08:37:12.022Z,-5.40
2019-01-21T08:40:20.532Z,-5.10
2019-01-21T08:43:27.629Z,-4.80
2019-01-21T08:46:34.752Z,-4.20
2019-01-21T08:49:41.873Z,-3.90
2019-01-21T08:52:50.360Z,-3.80
2019-01-21T08:55:57.492Z,-3.90
2019-01-21T08:59:04.605Z,-3.70
2019-01-21T09:02:11.725Z,-3.70
2019-01-21T09:05:20.243Z,-3.50
2019-01-21T09:08:27.363Z,-3.30
2019-01-21T09:11:35.880Z,-3.10
2019-01-21T09:14:42.969Z,-2.90
2019-01-21T09:17:51.493Z,-2.40
2019-01-21T09:20:58.621Z,-2.30
2019-01-21T09:24:05.721Z,-2.50
2019-01-21T09:26:46.746Z,-2.00
2019-01-21T09:29:27.381Z,-1.60
2019-01-21T09:32:08.469Z,-1.30
2019-01-21T09:34:54.790Z,-1.50
2019-01-21T09:38:03.318Z,-1.60
2019-01-21T09:41:10.429Z,-1.50
2019-01-21T09:44:18.923Z,-1.10
2019-01-21T09:47:06.250Z,-0.60
2019-01-21T09:49:54.021Z,-1.00
2019-01-21T09:52:42.079Z,-0.70
2019-01-21T09:55:29.871Z,-0.90
2019-01-21T09:58:38.421Z,-0.80
2019-01-21T10:01:26.257Z,-1.00
2019-01-21T10:04:34.767Z,-0.80
2019-01-21T10:07:41.869Z,-0.80
2019-01-21T10:10:50.367Z,-0.10
2019-01-21T10:13:57.490Z,-0.30
2019-01-21T10:17:04.587Z,-0.10
2019-01-21T10:20:11.687Z,-0.40
2019-01-21T10:23:04.275Z,-0.40
2019-01-21T10:25:38.495Z,-0.20
2019-01-21T10:28:18.630Z,0.20
2019-01-21T10:31:12.821Z,0.10
2019-01-21T10:34:08.939Z,0.30
2019-01-21T10:37:09.112Z,0.40
2019-01-21T10:39:49.242Z,0.70
2019-01-21T10:42:32.050Z,0.70
2019-01-21T10:45:15.518Z,0.20
2019-01-21T10:48:10.850Z,0.10
2019-01-21T10:50:51.534Z,0.50
2019-01-21T10:53:23.056Z,0.30
2019-01-21T10:56:06.571Z,-0.10
2019-01-21T10:59:02.330Z,0.40
2019-01-21T11:01:48.903Z,1.00
2019-01-21T11:04:20.422Z,1.00
2019-01-21T11:06:57.421Z,0.50
2019-01-21T11:09:38.066Z,0.80
2019-01-21T11:12:15.498Z,0.90
2019-01-21T11:14:55.787Z,0.70
2019-01-21T11:17:39.337Z,0.90
2019-01-21T11:20:22.811Z,0.70
2019-01-21T11:23:00.192Z,1.10
2019-01-21T11:25:54.478Z,1.70
2019-01-21T11:28:31.657Z,1.50
2019-01-21T11:31:03.986Z,0.80
2019-01-21T11:33:47.254Z,0.90
2019-01-21T11:36:51.825Z,0.50
2019-01-21T11:39:44.012Z,0.90
2019-01-21T11:42:24.447Z,0.40
2019-01-21T11:45:14.152Z,0.80
2019-01-21T11:47:48.578Z,0.50
2019-01-21T11:50:25.829Z,1.00
2019-01-21T11:53:14.763Z,0.40
2019-01-21T11:55:54.994Z,1.00
2019-01-21T11:58:38.411Z,0.30
2019-01-21T12:01:09.928Z,0.20
2019-01-21T12:04:11.653Z,0.70
2019-01-21T12:06:43.166Z,0.80
2019-01-21T12:09:17.360Z,0.90
2019-01-21T12:12:06.934Z,1.00
2019-01-21T12:14:47.581Z,0.40
2019-01-21T12:17:37.190Z,0.70
2019-01-21T12:20:17.044Z,0.80
2019-01-21T12:23:08.254Z,1.00
2019-01-21T12:25:48.755Z,1.50
2019-01-21T12:28:35.298Z,1.10
2019-01-21T12:31:15.589Z,1.30
2019-01-21T12:34:08.258Z,0.80
2019-01-21T12:36:39.766Z,0.60
2019-01-21T12:39:19.382Z,0.50
2019-01-21T12:41:53.578Z,1.00
2019-01-21T12:44:30.839Z,1.40
2019-01-21T12:47:21.761Z,1.70
2019-01-21T12:50:10.874Z,1.70
2019-01-21T12:52:45.222Z,1.30
2019-01-21T12:55:36.194Z,0.30
2019-01-21T12:58:13.433Z,0.90
2019-01-21T13:00:53.533Z,1.00
2019-01-21T13:03:43.091Z,0.80
2019-01-21T13:06:36.335Z,1.50
2019-01-21T13:09:19.767Z,0.90
2019-01-21T13:11:59.874Z,1.50
2019-01-21T13:14:40.022Z,1.50
2019-01-21T13:17:11.518Z,1.40
2019-01-21T13:19:58.065Z,1.00
2019-01-21T13:22:32.079Z,1.30
2019-01-21T13:25:18.636Z,1.70
2019-01-21T13:27:58.792Z,2.00
2019-01-21T13:30:59.242Z,1.60
2019-01-21T13:33:42.923Z,1.50
2019-01-21T13:36:26.470Z,1.60
2019-01-21T13:39:01.072Z,1.50
2019-01-21T13:41:35.493Z,0.70
2019-01-21T13:44:09.923Z,0.70
2019-01-21T13:47:01.083Z,0.60
2019-01-21T13:49:56.133Z,1.10
2019-01-21T13:52:46.972Z,1.40
2019-01-21T13:55:18.494Z,1.40
2019-01-21T13:57:52.546Z,1.70
2019-01-21T14:00:24.059Z,1.60
2019-01-21T14:03:04.060Z,1.90
2019-01-21T14:05:52.381Z,1.80
2019-01-21T14:08:29.675Z,1.90
2019-01-21T14:11:22.498Z,2.40
2019-01-21T14:13:59.729Z,2.10
2019-01-21T14:16:31.243Z,1.70
2019-01-21T14:19:26.707Z,1.60
2019-01-21T14:22:20.682Z,1.60
2019-01-21T14:25:08.819Z,1.90
2019-01-21T14:27:55.697Z,1.90
2019-01-21T14:30:43.992Z,2.10
2019-01-21T14:33:24.029Z,2.40
2019-01-21T14:36:09.916Z,2.20
2019-01-21T14:39:02.485Z,2.50
2019-01-21T14:41:42.671Z,2.60
2019-01-21T14:44:19.910Z,2.60
2019-01-21T14:47:06.441Z,2.70
2019-01-21T14:49:43.818Z,2.70
2019-01-21T14:52:39.040Z,2.20
2019-01-21T14:55:25.387Z,2.20
2019-01-21T14:58:05.735Z,2.40
2019-01-21T15:00:42.979Z,2.20
2019-01-21T15:03:14.584Z,2.30
2019-01-21T15:06:08.592Z,2.30
2019-01-21T15:08:40.125Z,2.30
2019-01-21T15:11:26.639Z,2.20
2019-01-21T15:14:03.983Z,2.20
2019-01-21T15:16:44.318Z,2.00
2019-01-21T15:19:15.895Z,2.00
2019-01-21T15:21:50.395Z,1.90
2019-01-21T15:24:30.515Z,1.80
2019-01-21T15:27:13.811Z,1.80
2019-01-21T15:29:54.089Z,1.70
2019-01-21T15:32:43.688Z,1.50
2019-01-21T15:35:33.984Z,1.30
2019-01-21T15:38:21.931Z,1.10
2019-01-21T15:40:56.201Z,0.70
2019-01-21T15:43:42.902Z,0.60
2019-01-21T15:46:20.379Z,0.70
2019-01-21T15:48:57.595Z,0.70
2019-01-21T15:51:31.996Z,0.40
2019-01-21T15:54:15.430Z,0.10
2019-01-21T15:56:52.646Z,0.30
2019-01-21T16:00:12.967Z,0.30
2019-01-21T16:03:20.323Z,0.10
2019-01-21T16:06:28.822Z,-0.20
2019-01-21T16:09:35.929Z,0.10
2019-01-21T16:12:43.039Z,0.20
2019-01-21T16:15:50.140Z,0.10
2019-01-21T16:18:57.265Z,-0.20
2019-01-21T16:22:05.767Z,-0.20
2019-01-21T16:24:46.247Z,-0.50
2019-01-21T16:27:26.833Z,-0.80
2019-01-21T16:30:07.626Z,-1.00
2019-01-21T16:32:48.541Z,-1.10
2019-01-21T16:35:29.305Z,-1.90
2019-01-21T16:38:09.998Z,-1.80
2019-01-21T16:40:50.972Z,-1.30
2019-01-21T16:43:31.850Z,-1.40
2019-01-21T16:46:12.487Z,-1.60
2019-01-21T16:48:53.276Z,-1.60
2019-01-21T16:51:34.280Z,-1.70
2019-01-21T16:54:14.862Z,-1.60
2019-01-21T16:56:55.477Z,-1.60
2019-01-21T16:59:36.235Z,-1.60
2019-01-21T17:02:17.033Z,-1.70
2019-01-21T17:04:45.560Z,-1.70
2019-01-21T17:07:33.416Z,-1.70
2019-01-21T17:10:21.200Z,-1.70
2019-01-21T17:13:08.997Z,-1.80
2019-01-21T17:15:56.768Z,-2.00
2019-01-21T17:18:44.546Z,-1.90
2019-01-21T17:21:32.324Z,-2.20
2019-01-21T17:24:13.146Z,-2.50
2019-01-21T17:26:53.468Z,-2.50
2019-01-21T17:29:34.321Z,-2.90
2019-01-21T17:32:15.442Z,-2.90
2019-01-21T17:34:56.836Z,-3.00
2019-01-21T17:37:37.328Z,-2.70
2019-01-21T17:40:18.207Z,-2.80
2019-01-21T17:42:59.183Z,-3.00
2019-01-21T17:45:39.893Z,-3.20
2019-01-21T17:48:20.387Z,-3.10
2019-01-21T17:51:01.023Z,-2.90
2019-01-21T17:53:41.731Z,-3.10
2019-01-21T17:56:22.555Z,-3.20
2019-01-21T17:58:50.997Z,-3.30
2019-01-21T18:01:39.448Z,-3.30
2019-01-21T18:04:28.296Z,-3.50
2019-01-21T18:06:56.735Z,-3.70
2019-01-21T18:09:44.528Z,-3.40
2019-01-21T18:12:32.323Z,-3.50
2019-01-21T18:15:20.130Z,-3.40
2019-01-21T18:18:07.965Z,-3.80
2019-01-21T18:20:55.748Z,-3.80
2019-01-21T18:23:43.536Z,-3.80
2019-01-21T18:26:24.468Z,-4.00
2019-01-21T18:29:05.124Z,-3.90
2019-01-21T18:31:45.865Z,-3.90
2019-01-21T18:34:26.395Z,-3.80
2019-01-21T18:37:07.152Z,-4.20
2019-01-21T18:39:48.210Z,-4.30
2019-01-21T18:42:28.675Z,-4.20
2019-01-21T18:45:09.248Z,-4.10
2019-01-21T18:47:50.140Z,-4.20
2019-01-21T18:50:18.643Z,-4.10
2019-01-21T18:53:06.450Z,-4.20
2019-01-21T18:58:41.693Z,-4.30
2019-01-21T19:01:29.494Z,-4.60
2019-01-21T19:03:57.932Z,-4.70
2019-01-21T19:06:45.736Z,-4.60
2019-01-21T19:09:33.499Z,-4.70
2019-01-21T19:12:21.313Z,-4.60
2019-01-21T19:15:28.409Z,-4.70
2019-01-21T19:18:16.200Z,-4.90
2019-01-21T19:21:03.985Z,-5.30
2019-01-21T19:23:51.777Z,-5.70
2019-01-21T19:26:32.047Z,-5.70
2019-01-21T19:29:12.389Z,-5.50
2019-01-21T19:31:53.107Z,-5.30
2019-01-21T19:34:34.078Z,-5.10
2019-01-21T19:37:14.815Z,-5.10
2019-01-21T19:39:55.779Z,-5.20
2019-01-21T19:42:36.250Z,-5.20
2019-01-21T19:45:17.091Z,-5.10
2019-01-21T19:47:58.106Z,-5.20
2019-01-21T19:50:39.033Z,-5.40
2019-01-21T19:53:19.882Z,-5.30
2019-01-21T19:56:00.659Z,-5.30
2019-01-21T19:58:41.380Z,-5.40
2019-01-21T20:01:22.272Z,-5.60
2019-01-21T20:04:02.923Z,-5.70
2019-01-21T20:06:43.561Z,-5.70
2019-01-21T20:09:24.351Z,-5.70
2019-01-21T20:12:05.190Z,-5.70
2019-01-21T20:14:46.128Z,-6.00
2019-01-21T20:17:27.050Z,-6.20
2019-01-21T20:20:07.926Z,-6.30
2019-01-21T20:22:48.532Z,-6.10
2019-01-21T20:25:29.308Z,-6.10
2019-01-21T20:28:10.363Z,-6.40
2019-01-21T20:30:51.409Z,-6.00
2019-01-21T20:33:32.380Z,-6.20
2019-01-21T20:36:13.392Z,-6.30
2019-01-21T20:38:54.235Z,-6.50
2019-01-21T20:41:35.288Z,-6.40
2019-01-21T20:44:15.568Z,-6.20
2019-01-21T20:46:56.247Z,-6.10
2019-01-21T20:49:37.257Z,-6.20
2019-01-21T20:52:05.700Z,-6.20
2019-01-21T20:54:53.582Z,-6.30
2019-01-21T20:57:41.369Z,-6.30
2019-01-21T21:00:49.878Z,-6.40
2019-01-21T21:03:37.660Z,-6.40
2019-01-21T21:06:25.446Z,-6.60
2019-01-21T21:09:13.230Z,-6.40
2019-01-21T21:12:01.014Z,-6.50
2019-01-21T21:14:48.799Z,-6.60
2019-01-21T21:17:36.574Z,-6.60
2019-01-21T21:20:24.381Z,-6.60
2019-01-21T21:23:12.164Z,-6.50
2019-01-21T21:25:52.652Z,-6.60
2019-01-21T21:28:33.160Z,-6.50
2019-01-21T21:31:14.183Z,-6.50
2019-01-21T21:33:55.266Z,-6.60
2019-01-21T21:36:35.899Z,-6.70
2019-01-21T21:39:16.520Z,-6.80
2019-01-21T21:41:57.207Z,-6.90
2019-01-21T21:44:38.602Z,-6.90
2019-01-21T21:47:19.160Z,-6.90
2019-01-21T21:49:59.786Z,-7.00
2019-01-21T21:52:40.494Z,-7.00
2019-01-21T21:55:21.083Z,-6.90
2019-01-21T21:58:02.325Z,-6.80
2019-01-21T22:00:30.928Z,-6.80
2019-01-21T22:03:18.709Z,-6.70
2019-01-21T22:06:06.499Z,-6.90
2019-01-21T22:08:54.275Z,-7.30
2019-01-21T22:11:42.068Z,-7.40
2019-01-21T22:14:29.917Z,-7.10
2019-01-21T22:17:17.779Z,-7.10
2019-01-21T22:20:26.378Z,-7.10
2019-01-21T22:23:14.235Z,-6.90
2019-01-21T22:25:54.848Z,-6.80
2019-01-21T22:28:35.795Z,-6.80
2019-01-21T22:31:16.404Z,-6.60
2019-01-21T22:33:57.058Z,-6.80
2019-01-21T22:36:38.046Z,-7.10
2019-01-21T22:39:18.652Z,-7.00
2019-01-21T22:41:59.527Z,-7.20
2019-01-21T22:44:40.177Z,-7.20
2019-01-21T22:47:21.063Z,-7.20
2019-01-21T22:50:01.651Z,-7.10
2019-01-21T22:52:42.595Z,-7.40
2019-01-21T22:55:23.559Z,-7.50
2019-01-21T22:58:04.156Z,-7.50
2019-01-21T23:00:49.027Z,-7.70
2019-01-21T23:03:29.785Z,-7.70
2019-01-21T23:06:10.456Z,-7.70
2019-01-21T23:08:51.492Z,-7.80
2019-01-21T23:11:32.476Z,-7.60
2019-01-21T23:14:13.289Z,-7.60
2019-01-21T23:16:53.951Z,-7.60
2019-01-21T23:19:34.771Z,-7.50
2019-01-21T23:22:15.485Z,-7.50
2019-01-21T23:24:56.097Z,-7.50
2019-01-21T23:27:37.027Z,-7.70
2019-01-21T23:30:11.550Z,-7.60
2019-01-21T23:32:40.008Z,-7.70
2019-01-21T23:35:08.670Z,-7.60
2019-01-21T23:37:37.094Z,-7.60
2019-01-21T23:40:08.652Z,-7.90
2019-01-21T23:42:37.223Z,-8.00
2019-01-21T23:45:08.225Z,-7.80
2019-01-21T23:47:36.723Z,-7.90
2019-01-21T23:50:16.618Z,-7.90
2019-01-21T23:52:45.055Z,-8.00
2019-01-21T23:55:13.938Z,-7.80
2019-01-21T23:57:42.375Z,-7.90
